ADDS METAR Data INFO
IDs: Format: Raw Decoded Include TAF

Data at: 0843 UTC 27 Jun 2017

KSEP 270835Z AUTO 00000KT 7SM CLR 23/21 A3007 RMK AO2 T02250206
KSEP 270815Z AUTO 00000KT 7SM CLR 23/21 A3007 RMK AO2 T02260206
KSEP 270755Z AUTO 00000KT 10SM CLR 23/21 A3008 RMK AO2 T02300207
KSEP 270735Z AUTO 00000KT 10SM CLR 23/21 A3008 RMK AO2 T02300207
KSEP 270715Z AUTO 00000KT 10SM SCT026 SCT035 23/21 A3009 RMK AO2 T02320209
KSEP 270655Z AUTO 00000KT 10SM SCT028 BKN035 BKN042 24/21 A3009 RMK AO2 T02360210
KSEP 270635Z AUTO 00000KT 10SM SCT031 BKN037 24/21 A3010 RMK AO2 T02360211
KSEP 270615Z AUTO 00000KT 10SM CLR 24/21 A3010 RMK AO2 T02350211
KSEP 270555Z AUTO 00000KT 10SM CLR 24/21 A3011 RMK AO2 T02370211 10280 20237 403080214
KSEP 270535Z AUTO 00000KT 10SM SCT080 24/21 A3011 RMK AO2 T02400212
KSEP 270515Z AUTO 00000KT 10SM SCT028 SCT037 BKN075 24/21 A3011 RMK AO2 T02400214
KSEP 270455Z AUTO 00000KT 10SM BKN030 BKN037 BKN047 24/22 A3010 RMK AO2 T02400215
KSEP 270435Z AUTO 00000KT 10SM SCT030 24/21 A3009 RMK AO2 T02400212
KSEP 270415Z AUTO 00000KT 10SM CLR 24/21 A3009 RMK AO2 T02410212
KSEP 270355Z AUTO 00000KT 10SM CLR 24/21 A3008 RMK AO2 T02440213
KSEP 270335Z AUTO 00000KT 10SM CLR 25/21 A3008 RMK AO2 T02450212
KSEP 270315Z AUTO 00000KT 10SM SCT032 SCT040 25/21 A3007 RMK AO2 T02500212
KSEP 270255Z AUTO 00000KT 10SM BKN031 25/21 A3007 RMK AO2 T02530212
KSEP 270235Z AUTO 00000KT 10SM SCT031 26/21 A3008 RMK AO2 T02560211
KSEP 270215Z AUTO 12004KT 10SM CLR 26/21 A3007 RMK AO2 T02600210
KSEP 270155Z AUTO 12003KT 10SM CLR 26/21 A3007 RMK AO2 T02620210
KSEP 270135Z AUTO 10003KT 10SM SCT040 27/21 A3007 RMK AO2 T02680210
KSEP 270115Z AUTO 09003KT 10SM CLR 27/21 A3006 RMK AO2 T02700209
KSEP 270055Z AUTO 11003KT 10SM CLR 27/21 A3006 RMK AO2 T02710208
KSEP 270035Z AUTO 09003KT 10SM CLR 28/21 A3006 RMK AO2 T02750210
KSEP 270015Z AUTO 10004KT 10SM CLR 28/21 A3006 RMK AO2 T02770207
KSEP 262355Z AUTO 12004KT 10SM CLR 28/20 A3006 RMK AO2 T02800204 10308 20275
KSEP 262335Z AUTO 12005KT 10SM SCT038 28/21 A3006 RMK AO2 T02810205
KSEP 262315Z AUTO 13004KT 10SM BKN038 28/20 A3006 RMK AO2 T02830204
KSEP 262255Z AUTO 12003KT 10SM SCT038 29/20 A3006 RMK AO2 T02870198
KSEP 262235Z AUTO 10005KT 10SM CLR 29/20 A3006 RMK AO2 T02900203
KSEP 262215Z AUTO 09007KT 10SM SCT035 SCT043 29/20 A3007 RMK AO2 T02920202
KSEP 262155Z AUTO 12005KT 10SM SCT037 30/20 A3007 RMK AO2 T02990199
KSEP 262135Z AUTO 06004KT 10SM SCT037 SCT045 31/20 A3007 RMK AO2 T03050196
KSEP 262115Z AUTO 09004KT 10SM CLR 30/19 A3008 RMK AO2 T03020193
KSEP 262055Z AUTO 05007KT 10SM SCT032 31/21 A3009 RMK AO2 T03050205
KSEP 262035Z AUTO 12003KT 10SM SCT031 31/20 A3010 RMK AO2 T03050202
KSEP 262015Z AUTO 07004KT 10SM SCT031 29/20 A3011 RMK AO2 T02910201
KSEP 261955Z AUTO 05004KT 10SM SCT029 SCT034 SCT060 29/20 A3012 RMK AO2 T02920204
KSEP 261935Z AUTO 08003KT 10SM SCT026 SCT037 SCT060 30/21 A3013 RMK AO2 T02970209
KSEP 261915Z AUTO 09004KT 10SM SCT026 SCT050 29/21 A3014 RMK AO2 T02860207
KSEP 261855Z AUTO 00000KT 10SM SCT028 SCT048 SCT075 28/21 A3014 RMK AO2 T02820210
KSEP 261835Z AUTO 06005KT 10SM SCT026 SCT075 28/21 A3015 RMK AO2 T02800205
KSEP 261815Z AUTO 09006KT 10SM SCT024 SCT033 29/21 A3016 RMK AO2 T02910208
KSEP 261755Z AUTO 07005KT 10SM SCT024 BKN032 BKN050 28/21 A3016 RMK AO2 T02760206 10284 20220
KSEP 261735Z AUTO 11004KT 10SM SCT050 28/20 A3017 RMK AO2 T02770204
KSEP 261715Z AUTO 00000KT 10SM SCT023 SCT028 BKN075 27/20 A3017 RMK AO2 T02680203
KSEP 261655Z AUTO 00000KT 10SM SCT023 BKN028 OVC075 27/20 A3018 RMK AO2 T02700203
KSEP 261635Z AUTO 00000KT 10SM BKN021 BKN030 BKN035 27/20 A3019 RMK AO2 T02740202
KSEP 261615Z AUTO 00000KT 10SM SCT021 BKN027 BKN035 26/20 A3019 RMK AO2 T02600204
KSEP 261555Z AUTO 00000KT 10SM BKN020 BKN025 26/20 A3019 RMK AO2 T02640202
KSEP 261535Z AUTO 00000KT 10SM SCT016 BKN023 26/21 A3019 RMK AO2 T02570206
KSEP 261515Z AUTO 00000KT 10SM OVC016 25/20 A3020 RMK AO2 T02510203
KSEP 261455Z AUTO 00000KT 10SM OVC016 25/21 A3020 RMK AO2 T02480205
KSEP 261435Z AUTO 00000KT 10SM OVC014 24/21 A3021 RMK AO2 T02420206
KSEP 261415Z AUTO 00000KT 10SM OVC009 24/21 A3021 RMK AO2 T02370208
KSEP 261355Z AUTO 00000KT 10SM OVC007 23/21 A3021 RMK AO2 T02310208
KSEP 261335Z AUTO 00000KT 10SM OVC007 23/21 A3021 RMK AO2 T02280208
KSEP 261315Z AUTO 15003KT 10SM OVC007 23/21 A3020 RMK AO2 T02260207
KSEP 261255Z AUTO 00000KT 10SM BKN007 BKN016 OVC021 22/21 A3020 RMK AO2 T02230206
KSEP 261235Z AUTO 00000KT 10SM BKN005 BKN016 OVC021 22/21 A3019 RMK AO2 T02230207
KSEP 261215Z AUTO 00000KT 7SM OVC007 22/21 A3019 RMK AO2 T02210205
KSEP 261155Z AUTO 15003KT 7SM OVC007 22/21 A3017 RMK AO2 T02210205 10227 20214
KSEP 261135Z AUTO 15003KT 10SM BKN004 OVC009 22/21 A3018 RMK AO2 T02200205
KSEP 261115Z AUTO 13003KT 10SM OVC004 22/20 A3017 RMK AO2 T02200203
KSEP 261055Z AUTO 13003KT 10SM OVC004 22/20 A3017 RMK AO2 T02200203
KSEP 261035Z AUTO 11003KT 10SM OVC004 22/20 A3017 RMK AO2 T02180202
KSEP 261015Z AUTO 00000KT 10SM BKN006 BKN010 22/20 A3017 RMK AO2 T02160200
KSEP 260955Z AUTO 00000KT 10SM SCT008 21/20 A3017 RMK AO2 T02140197
KSEP 260935Z AUTO 00000KT 10SM CLR 22/20 A3017 RMK AO2 T02150197
KSEP 260915Z AUTO 00000KT 10SM CLR 22/20 A3016 RMK AO2 T02160198
KSEP 260855Z AUTO 11003KT 10SM CLR 22/20 A3017 RMK AO2 T02160197
KSEP 260835Z AUTO 11005KT 10SM CLR 22/20 A3017 RMK AO2 T02180198
KSEP 260815Z AUTO 10004KT 10SM CLR 22/20 A3019 RMK AO2 T02200198
KSEP 260755Z AUTO 11005KT 10SM CLR 22/20 A3019 RMK AO2 T02210199
KSEP 260735Z AUTO 11004KT 10SM CLR 22/20 A3019 RMK AO2 T02210198
KSEP 260715Z AUTO 10003KT 10SM CLR 22/20 A3020 RMK AO2 T02220198
KSEP 260655Z AUTO 00000KT 10SM SCT022 22/20 A3020 RMK AO2 T02230197
KSEP 260635Z AUTO 11003KT 10SM SCT024 23/20 A3020 RMK AO2 T02250198
KSEP 260615Z AUTO 11006KT 10SM CLR 23/20 A3020 RMK AO2 T02260198
KSEP 260555Z AUTO 11007KT 10SM CLR 23/20 A3020 RMK AO2 T02270199 10282 20227 403000196
KSEP 260535Z AUTO 11005KT 10SM CLR 23/20 A3020 RMK AO2 T02270198
KSEP 260515Z AUTO 11006KT 10SM CLR 23/20 A3020 RMK AO2 T02270197
KSEP 260455Z AUTO 10005KT 10SM SCT034 23/20 A3021 RMK AO2 T02300200
KSEP 260435Z AUTO 10004KT 10SM SCT034 23/20 A3022 RMK AO2 T02300200
KSEP 260415Z AUTO 10003KT 10SM CLR 23/20 A3022 RMK AO2 T02300200
KSEP 260355Z AUTO 09003KT 10SM CLR 23/20 A3021 RMK AO2 T02310200
KSEP 260335Z AUTO 09003KT 10SM CLR 23/20 A3020 RMK AO2 T02320200
KSEP 260315Z AUTO 09003KT 10SM CLR 24/20 A3019 RMK AO2 T02350200
KSEP 260255Z AUTO 00000KT 10SM CLR 24/20 A3019 RMK AO2 T02350200
KSEP 260235Z AUTO 00000KT 10SM CLR 24/20 A3018 RMK AO2 T02400200
KSEP 260215Z AUTO 00000KT 10SM CLR 24/20 A3017 RMK AO2 T02410200
KSEP 260200Z AUTO 00000KT 10SM CLR 25/20 A3016 RMK AO2 T02480200
KSEP 260135Z AUTO 10003KT 10SM SCT029 26/20 A3016 RMK AO2 T02580197
KSEP 260115Z AUTO 09005KT 10SM CLR 27/20 A3016 RMK AO2 T02660196
KSEP 260055Z AUTO 09007KT 10SM CLR 27/19 A3015 RMK AO2 T02710194
KSEP 260035Z AUTO 10006KT 10SM CLR 28/20 A3015 RMK AO2 T02780198
KSEP 260015Z AUTO 09008KT 10SM CLR 28/20 A3015 RMK AO2 T02810197
KSEP 252355Z AUTO 09008KT 10SM CLR 28/20 A3015 RMK AO2 T02810197 10300 20268
KSEP 252335Z AUTO 10008KT 10SM CLR 27/20 A3015 RMK AO2 T02740197
KSEP 252315Z AUTO 07006KT 10SM CLR 29/20 A3015 RMK AO2 T02910199
KSEP 252255Z AUTO 09008KT 10SM SCT033 SCT044 SCT065 28/20 A3015 RMK AO2 T02790202
KSEP 252235Z AUTO 12008KT 070V130 10SM SCT033 SCT044 SCT050 28/20 A3017 RMK AO2 T02840198
KSEP 252215Z AUTO 08009KT 10SM SCT031 SCT037 BKN060 30/20 A3017 RMK AO2 T02960199
KSEP 252155Z AUTO 08008KT 10SM SCT037 SCT047 BKN060 29/19 A3019 RMK AO2 T02890191
KSEP 252135Z AUTO 08006KT 10SM SCT037 SCT046 SCT050 29/19 A3019 RMK AO2 T02930192
KSEP 252115Z AUTO 08004KT 10SM SCT035 SCT048 SCT050 28/19 A3020 RMK AO2 T02820191
KSEP 252055Z AUTO 07003KT 10SM SCT035 SCT050 29/19 A3021 RMK AO2 T02930190


Page loaded:  08:43 UTC  |   01:43 AM Pacific  |   02:43 AM Mountain  |   03:43 AM Central  |   04:43 AM Eastern

 

ADVISORIES

FORECASTS

FORECASTS

OBSERVATIONS

USER TOOLS

ABOUT US